This is the latest recevied weather packets stored in our database for station/object KI4BIY. If no packets are shown the sender has not sent any weather packets the latest 10 day(s).
| Time | Temp. | Humidity | Pressure | Rain* | Wind** | Luminosity | Snow |
|---|---|---|---|---|---|---|---|
| 1778339172 | 24.44° C | 65% | 1010.4 hPa | 0 mm | - | 699 W/m² | - |
| 1778338870 | 23.89° C | 64% | 1010.5 hPa | 0 mm | - | 709 W/m² | - |
| 1778338565 | 23.89° C | 66% | 1010.3 hPa | 0 mm | - | 706 W/m² | - |
| 1778338260 | 23.33° C | 67% | 1010.4 hPa | 0 mm | - | 672 W/m² | - |
| 1778337958 | 23.33° C | 67% | 1010.4 hPa | 0 mm | - | 689 W/m² | - |
| 1778337655 | 23.33° C | 68% | 1010.4 hPa | 0 mm | - | 687 W/m² | - |
| 1778337352 | 23.33° C | 71% | 1010.3 hPa | 0 mm | - | 593 W/m² | - |
| 1778337049 | 22.78° C | 70% | 1010.5 hPa | 0 mm | - | 592 W/m² | - |
| 1778336745 | 22.22° C | 73% | 1010.5 hPa | 0 mm | - | 574 W/m² | - |
| 1778336441 | 22.22° C | 71% | 1010.4 hPa | 0 mm | - | 606 W/m² | - |
| 1778336137 | 22.78° C | 71% | 1010.3 hPa | 0 mm | - | 547 W/m² | - |
| 1778335834 | 22.78° C | 71% | 1010.5 hPa | 0 mm | - | 509 W/m² | - |
| 1778335531 | 21.67° C | 76% | 1010.3 hPa | 0 mm | - | 481 W/m² | - |
| 1778335229 | 21.67° C | 75% | 1010.4 hPa | 0 mm | - | 438 W/m² | - |
| 1778334926 | 21.11° C | 76% | 1010.4 hPa | 0 mm | - | 408 W/m² | - |
| 1778334623 | 20.56° C | 77% | 1010.4 hPa | 0 mm | - | 282 W/m² | - |
| 1778334320 | 20.56° C | 76% | 1010.4 hPa | 0 mm | - | 252 W/m² | - |
| 1778334018 | 20.56° C | 78% | 1010.2 hPa | 0 mm | - | 294 W/m² | - |
| 1778333714 | 20° C | 79% | 1010.2 hPa | 0 mm | - | 319 W/m² | - |
| 1778333412 | 19.44° C | 79% | 1010.2 hPa | 0 mm | - | 297 W/m² | - |
| 1778333110 | 19.44° C | 81% | 1010 hPa | 0 mm | - | 231 W/m² | - |
| 1778332808 | 19.44° C | 81% | 1010.1 hPa | 0 mm | - | 262 W/m² | - |
| 1778332504 | 18.89° C | 82% | 1010.1 hPa | 0 mm | - | 249 W/m² | - |
| 1778332201 | 18.89° C | 83% | 1010.1 hPa | 0 mm | - | 223 W/m² | - |
| 1778331896 | 18.33° C | 85% | 1010 hPa | 0 mm | - | 208 W/m² | - |
* Rain latest hour (hover to see other rain measurements)
** Current wind speed in m/s (hover to see current wind gust speed)